sensor_id;sensor_type;location;lat;lon;timestamp;P1;durP1;ratioP1;P2;durP2;ratioP2
26038;SDS011;13815;52.374;4.882;2023-09-19T00:00:37;0.60;;;0.60;;
26038;SDS011;13815;52.374;4.882;2023-09-19T00:03:03;0.80;;;0.80;;
26038;SDS011;13815;52.374;4.882;2023-09-19T00:05:34;0.80;;;0.80;;
26038;SDS011;13815;52.374;4.882;2023-09-19T00:08:01;0.75;;;0.75;;
26038;SDS011;13815;52.374;4.882;2023-09-19T00:10:30;0.70;;;0.70;;
26038;SDS011;13815;52.374;4.882;2023-09-19T00:12:56;0.75;;;0.75;;
26038;SDS011;13815;52.374;4.882;2023-09-19T00:15:25;0.90;;;0.90;;
26038;SDS011;13815;52.374;4.882;2023-09-19T00:17:53;1.00;;;1.00;;
26038;SDS011;13815;52.374;4.882;2023-09-19T00:20:20;0.90;;;0.90;;
26038;SDS011;13815;52.374;4.882;2023-09-19T00:22:49;0.90;;;0.90;;
26038;SDS011;13815;52.374;4.882;2023-09-19T00:25:18;1.10;;;1.10;;
26038;SDS011;13815;52.374;4.882;2023-09-19T00:27:47;1.00;;;1.00;;
26038;SDS011;13815;52.374;4.882;2023-09-19T00:30:16;1.10;;;1.10;;
26038;SDS011;13815;52.374;4.882;2023-09-19T00:32:44;1.50;;;1.50;;
26038;SDS011;13815;52.374;4.882;2023-09-19T00:35:12;1.48;;;1.48;;
26038;SDS011;13815;52.374;4.882;2023-09-19T00:37:40;1.42;;;1.42;;
26038;SDS011;13815;52.374;4.882;2023-09-19T00:40:09;1.60;;;1.60;;
26038;SDS011;13815;52.374;4.882;2023-09-19T00:42:38;1.48;;;1.48;;
26038;SDS011;13815;52.374;4.882;2023-09-19T00:45:10;1.60;;;1.60;;
26038;SDS011;13815;52.374;4.882;2023-09-19T00:47:44;2.20;;;2.20;;
26038;SDS011;13815;52.374;4.882;2023-09-19T00:50:11;1.77;;;1.77;;
26038;SDS011;13815;52.374;4.882;2023-09-19T00:52:39;2.40;;;2.40;;
26038;SDS011;13815;52.374;4.882;2023-09-19T00:55:07;2.40;;;2.40;;
26038;SDS011;13815;52.374;4.882;2023-09-19T00:57:33;3.10;;;3.00;;
26038;SDS011;13815;52.374;4.882;2023-09-19T01:00:02;2.60;;;2.60;;
26038;SDS011;13815;52.374;4.882;2023-09-19T01:02:34;2.50;;;2.50;;
26038;SDS011;13815;52.374;4.882;2023-09-19T01:05:00;2.00;;;2.00;;
26038;SDS011;13815;52.374;4.882;2023-09-19T01:07:34;2.60;;;2.60;;
26038;SDS011;13815;52.374;4.882;2023-09-19T01:10:03;2.90;;;2.90;;
26038;SDS011;13815;52.374;4.882;2023-09-19T01:15:28;3.50;;;3.40;;
26038;SDS011;13815;52.374;4.882;2023-09-19T01:18:27;3.13;;;3.03;;
26038;SDS011;13815;52.374;4.882;2023-09-19T01:26:18;1.90;;;1.90;;
26038;SDS011;13815;52.374;4.882;2023-09-19T01:28:52;2.20;;;2.20;;
26038;SDS011;13815;52.374;4.882;2023-09-19T01:31:22;1.80;;;1.80;;
26038;SDS011;13815;52.374;4.882;2023-09-19T01:36:34;1.80;;;1.80;;
26038;SDS011;13815;52.374;4.882;2023-09-19T01:39:01;1.55;;;1.55;;
26038;SDS011;13815;52.374;4.882;2023-09-19T01:41:39;1.50;;;1.50;;
26038;SDS011;13815;52.374;4.882;2023-09-19T01:44:38;1.30;;;1.30;;
26038;SDS011;13815;52.374;4.882;2023-09-19T01:47:13;1.10;;;1.10;;
26038;SDS011;13815;52.374;4.882;2023-09-19T01:49:53;1.35;;;1.35;;
26038;SDS011;13815;52.374;4.882;2023-09-19T01:52:22;1.30;;;1.30;;
26038;SDS011;13815;52.374;4.882;2023-09-19T01:55:03;1.25;;;1.25;;
26038;SDS011;13815;52.374;4.882;2023-09-19T01:57:53;1.30;;;1.30;;
26038;SDS011;13815;52.374;4.882;2023-09-19T02:00:21;1.55;;;1.55;;
26038;SDS011;13815;52.374;4.882;2023-09-19T02:02:47;1.60;;;1.60;;
26038;SDS011;13815;52.374;4.882;2023-09-19T02:05:13;1.70;;;1.70;;
26038;SDS011;13815;52.374;4.882;2023-09-19T02:07:39;1.25;;;1.25;;
26038;SDS011;13815;52.374;4.882;2023-09-19T02:10:05;1.00;;;1.00;;
26038;SDS011;13815;52.374;4.882;2023-09-19T02:12:32;0.40;;;0.40;;
26038;SDS011;13815;52.374;4.882;2023-09-19T02:15:01;0.30;;;0.30;;
26038;SDS011;13815;52.374;4.882;2023-09-19T02:17:38;0.20;;;0.20;;
26038;SDS011;13815;52.374;4.882;2023-09-19T02:20:03;0.10;;;0.10;;
26038;SDS011;13815;52.374;4.882;2023-09-19T02:22:42;0.10;;;0.10;;
26038;SDS011;13815;52.374;4.882;2023-09-19T02:25:09;0.10;;;0.10;;
26038;SDS011;13815;52.374;4.882;2023-09-19T02:27:34;0.00;;;0.00;;
26038;SDS011;13815;52.374;4.882;2023-09-19T02:30:00;0.10;;;0.10;;
26038;SDS011;13815;52.374;4.882;2023-09-19T02:32:32;0.10;;;0.10;;
26038;SDS011;13815;52.374;4.882;2023-09-19T02:35:00;0.10;;;0.10;;
26038;SDS011;13815;52.374;4.882;2023-09-19T02:37:32;0.10;;;0.10;;
26038;SDS011;13815;52.374;4.882;2023-09-19T02:39:58;0.10;;;0.10;;
26038;SDS011;13815;52.374;4.882;2023-09-19T02:42:23;0.30;;;0.30;;
26038;SDS011;13815;52.374;4.882;2023-09-19T02:44:49;0.30;;;0.30;;
26038;SDS011;13815;52.374;4.882;2023-09-19T02:47:14;0.50;;;0.50;;
26038;SDS011;13815;52.374;4.882;2023-09-19T02:49:40;0.60;;;0.60;;
26038;SDS011;13815;52.374;4.882;2023-09-19T02:52:09;0.50;;;0.50;;
26038;SDS011;13815;52.374;4.882;2023-09-19T02:54:36;0.52;;;0.52;;
26038;SDS011;13815;52.374;4.882;2023-09-19T02:57:01;0.73;;;0.73;;
26038;SDS011;13815;52.374;4.882;2023-09-19T02:59:28;0.60;;;0.60;;
26038;SDS011;13815;52.374;4.882;2023-09-19T03:01:55;0.40;;;0.40;;
26038;SDS011;13815;52.374;4.882;2023-09-19T03:04:21;0.40;;;0.40;;
26038;SDS011;13815;52.374;4.882;2023-09-19T03:06:46;0.40;;;0.40;;
26038;SDS011;13815;52.374;4.882;2023-09-19T03:09:14;0.40;;;0.40;;
26038;SDS011;13815;52.374;4.882;2023-09-19T03:11:40;0.30;;;0.30;;
26038;SDS011;13815;52.374;4.882;2023-09-19T03:14:07;0.30;;;0.30;;
26038;SDS011;13815;52.374;4.882;2023-09-19T03:16:32;0.20;;;0.20;;
26038;SDS011;13815;52.374;4.882;2023-09-19T03:18:58;0.20;;;0.20;;
26038;SDS011;13815;52.374;4.882;2023-09-19T03:21:26;0.20;;;0.20;;
26038;SDS011;13815;52.374;4.882;2023-09-19T03:23:54;0.10;;;0.10;;
26038;SDS011;13815;52.374;4.882;2023-09-19T03:26:30;0.20;;;0.20;;
26038;SDS011;13815;52.374;4.882;2023-09-19T03:28:55;0.10;;;0.10;;
26038;SDS011;13815;52.374;4.882;2023-09-19T03:31:21;0.10;;;0.10;;
26038;SDS011;13815;52.374;4.882;2023-09-19T03:33:50;0.20;;;0.20;;
26038;SDS011;13815;52.374;4.882;2023-09-19T03:36:15;0.20;;;0.20;;
26038;SDS011;13815;52.374;4.882;2023-09-19T03:38:41;0.30;;;0.30;;
26038;SDS011;13815;52.374;4.882;2023-09-19T03:41:06;0.20;;;0.20;;
26038;SDS011;13815;52.374;4.882;2023-09-19T03:43:32;0.30;;;0.30;;
26038;SDS011;13815;52.374;4.882;2023-09-19T03:46:01;0.30;;;0.30;;
26038;SDS011;13815;52.374;4.882;2023-09-19T03:48:28;0.20;;;0.20;;
26038;SDS011;13815;52.374;4.882;2023-09-19T03:50:54;0.20;;;0.20;;
26038;SDS011;13815;52.374;4.882;2023-09-19T03:53:21;0.28;;;0.28;;
26038;SDS011;13815;52.374;4.882;2023-09-19T03:55:53;0.30;;;0.30;;
26038;SDS011;13815;52.374;4.882;2023-09-19T03:58:19;0.30;;;0.30;;
26038;SDS011;13815;52.374;4.882;2023-09-19T04:00:45;0.70;;;0.70;;
26038;SDS011;13815;52.374;4.882;2023-09-19T04:03:11;0.50;;;0.50;;
26038;SDS011;13815;52.374;4.882;2023-09-19T04:05:44;1.60;;;1.60;;
26038;SDS011;13815;52.374;4.882;2023-09-19T04:08:11;2.20;;;2.20;;
26038;SDS011;13815;52.374;4.882;2023-09-19T04:10:37;2.60;;;2.60;;
26038;SDS011;13815;52.374;4.882;2023-09-19T04:13:02;3.30;;;3.20;;
26038;SDS011;13815;52.374;4.882;2023-09-19T04:15:29;4.00;;;3.90;;
26038;SDS011;13815;52.374;4.882;2023-09-19T04:17:54;4.00;;;3.90;;
26038;SDS011;13815;52.374;4.882;2023-09-19T04:20:20;3.75;;;3.65;;
26038;SDS011;13815;52.374;4.882;2023-09-19T04:22:48;3.50;;;3.40;;
26038;SDS011;13815;52.374;4.882;2023-09-19T04:25:13;4.20;;;4.10;;
26038;SDS011;13815;52.374;4.882;2023-09-19T04:27:39;3.70;;;3.60;;
26038;SDS011;13815;52.374;4.882;2023-09-19T04:30:09;3.50;;;3.40;;
26038;SDS011;13815;52.374;4.882;2023-09-19T04:32:36;3.30;;;3.20;;
26038;SDS011;13815;52.374;4.882;2023-09-19T04:35:07;2.90;;;2.90;;
26038;SDS011;13815;52.374;4.882;2023-09-19T04:37:37;2.30;;;2.30;;
26038;SDS011;13815;52.374;4.882;2023-09-19T04:40:05;2.10;;;2.10;;
26038;SDS011;13815;52.374;4.882;2023-09-19T04:42:38;1.70;;;1.70;;
26038;SDS011;13815;52.374;4.882;2023-09-19T04:45:06;1.48;;;1.48;;
26038;SDS011;13815;52.374;4.882;2023-09-19T04:47:33;1.30;;;1.30;;
26038;SDS011;13815;52.374;4.882;2023-09-19T04:49:59;0.85;;;0.85;;
26038;SDS011;13815;52.374;4.882;2023-09-19T04:52:30;1.00;;;1.00;;
26038;SDS011;13815;52.374;4.882;2023-09-19T04:54:56;0.90;;;0.90;;
26038;SDS011;13815;52.374;4.882;2023-09-19T04:57:22;0.60;;;0.60;;
26038;SDS011;13815;52.374;4.882;2023-09-19T04:59:48;0.10;;;0.10;;
26038;SDS011;13815;52.374;4.882;2023-09-19T05:02:15;0.00;;;0.00;;
26038;SDS011;13815;52.374;4.882;2023-09-19T05:04:40;0.00;;;0.00;;
26038;SDS011;13815;52.374;4.882;2023-09-19T05:07:06;0.00;;;0.00;;
26038;SDS011;13815;52.374;4.882;2023-09-19T05:09:35;0.00;;;0.00;;
26038;SDS011;13815;52.374;4.882;2023-09-19T05:12:02;0.00;;;0.00;;
26038;SDS011;13815;52.374;4.882;2023-09-19T05:14:28;0.00;;;0.00;;
26038;SDS011;13815;52.374;4.882;2023-09-19T05:16:53;0.00;;;0.00;;
26038;SDS011;13815;52.374;4.882;2023-09-19T05:19:19;0.00;;;0.00;;
26038;SDS011;13815;52.374;4.882;2023-09-19T05:21:45;0.00;;;0.00;;
26038;SDS011;13815;52.374;4.882;2023-09-19T05:24:14;0.00;;;0.00;;
26038;SDS011;13815;52.374;4.882;2023-09-19T05:26:44;0.00;;;0.00;;
26038;SDS011;13815;52.374;4.882;2023-09-19T05:29:12;0.00;;;0.00;;
26038;SDS011;13815;52.374;4.882;2023-09-19T05:31:38;0.00;;;0.00;;
26038;SDS011;13815;52.374;4.882;2023-09-19T05:34:06;0.00;;;0.00;;
26038;SDS011;13815;52.374;4.882;2023-09-19T05:36:31;0.00;;;0.00;;
26038;SDS011;13815;52.374;4.882;2023-09-19T05:38:59;0.00;;;0.00;;
26038;SDS011;13815;52.374;4.882;2023-09-19T05:41:28;0.00;;;0.00;;
26038;SDS011;13815;52.374;4.882;2023-09-19T05:43:54;0.00;;;0.00;;
26038;SDS011;13815;52.374;4.882;2023-09-19T05:46:19;0.00;;;0.00;;
26038;SDS011;13815;52.374;4.882;2023-09-19T05:48:45;0.00;;;0.00;;
26038;SDS011;13815;52.374;4.882;2023-09-19T05:51:16;0.00;;;0.00;;
26038;SDS011;13815;52.374;4.882;2023-09-19T05:53:42;0.00;;;0.00;;
26038;SDS011;13815;52.374;4.882;2023-09-19T05:56:08;0.00;;;0.00;;
26038;SDS011;13815;52.374;4.882;2023-09-19T05:58:35;0.00;;;0.00;;
26038;SDS011;13815;52.374;4.882;2023-09-19T06:01:01;0.00;;;0.00;;
26038;SDS011;13815;52.374;4.882;2023-09-19T06:03:29;0.00;;;0.00;;
26038;SDS011;13815;52.374;4.882;2023-09-19T06:05:56;0.00;;;0.00;;
26038;SDS011;13815;52.374;4.882;2023-09-19T06:08:24;0.10;;;0.10;;
26038;SDS011;13815;52.374;4.882;2023-09-19T06:10:51;0.10;;;0.10;;
26038;SDS011;13815;52.374;4.882;2023-09-19T06:13:17;0.10;;;0.10;;
26038;SDS011;13815;52.374;4.882;2023-09-19T06:15:43;0.10;;;0.10;;
26038;SDS011;13815;52.374;4.882;2023-09-19T06:18:12;0.10;;;0.10;;
26038;SDS011;13815;52.374;4.882;2023-09-19T06:20:45;0.10;;;0.10;;
26038;SDS011;13815;52.374;4.882;2023-09-19T06:23:11;0.20;;;0.20;;
26038;SDS011;13815;52.374;4.882;2023-09-19T06:32:26;0.20;;;0.20;;
26038;SDS011;13815;52.374;4.882;2023-09-19T06:34:52;0.10;;;0.10;;
26038;SDS011;13815;52.374;4.882;2023-09-19T06:37:20;0.00;;;0.00;;
26038;SDS011;13815;52.374;4.882;2023-09-19T06:39:52;0.00;;;0.00;;
26038;SDS011;13815;52.374;4.882;2023-09-19T06:42:17;0.00;;;0.00;;
26038;SDS011;13815;52.374;4.882;2023-09-19T06:44:43;0.00;;;0.00;;
26038;SDS011;13815;52.374;4.882;2023-09-19T06:47:10;0.00;;;0.00;;
26038;SDS011;13815;52.374;4.882;2023-09-19T06:49:37;0.00;;;0.00;;
26038;SDS011;13815;52.374;4.882;2023-09-19T06:52:02;0.00;;;0.00;;
26038;SDS011;13815;52.374;4.882;2023-09-19T06:54:28;0.00;;;0.00;;
26038;SDS011;13815;52.374;4.882;2023-09-19T06:56:56;0.00;;;0.00;;
26038;SDS011;13815;52.374;4.882;2023-09-19T06:59:23;0.00;;;0.00;;
26038;SDS011;13815;52.374;4.882;2023-09-19T07:01:49;0.00;;;0.00;;
26038;SDS011;13815;52.374;4.882;2023-09-19T07:04:15;0.00;;;0.00;;
26038;SDS011;13815;52.374;4.882;2023-09-19T07:06:41;0.00;;;0.00;;
26038;SDS011;13815;52.374;4.882;2023-09-19T07:09:07;0.00;;;0.00;;
26038;SDS011;13815;52.374;4.882;2023-09-19T07:11:33;0.00;;;0.00;;
26038;SDS011;13815;52.374;4.882;2023-09-19T07:13:59;0.00;;;0.00;;
26038;SDS011;13815;52.374;4.882;2023-09-19T07:16:24;0.00;;;0.00;;
26038;SDS011;13815;52.374;4.882;2023-09-19T07:22:15;0.00;;;0.00;;
26038;SDS011;13815;52.374;4.882;2023-09-19T07:24:41;0.00;;;0.00;;
26038;SDS011;13815;52.374;4.882;2023-09-19T07:27:06;0.00;;;0.00;;
26038;SDS011;13815;52.374;4.882;2023-09-19T07:29:32;0.00;;;0.00;;
26038;SDS011;13815;52.374;4.882;2023-09-19T07:31:57;0.00;;;0.00;;
26038;SDS011;13815;52.374;4.882;2023-09-19T07:34:23;0.00;;;0.00;;
26038;SDS011;13815;52.374;4.882;2023-09-19T07:36:49;0.00;;;0.00;;
26038;SDS011;13815;52.374;4.882;2023-09-19T07:39:15;0.00;;;0.00;;
26038;SDS011;13815;52.374;4.882;2023-09-19T07:41:40;0.00;;;0.00;;
26038;SDS011;13815;52.374;4.882;2023-09-19T07:44:07;0.00;;;0.00;;
26038;SDS011;13815;52.374;4.882;2023-09-19T07:49:54;0.00;;;0.00;;
26038;SDS011;13815;52.374;4.882;2023-09-19T07:52:22;0.00;;;0.00;;
26038;SDS011;13815;52.374;4.882;2023-09-19T07:54:48;0.00;;;0.00;;
26038;SDS011;13815;52.374;4.882;2023-09-19T07:57:14;0.00;;;0.00;;
26038;SDS011;13815;52.374;4.882;2023-09-19T07:59:40;0.00;;;0.00;;
26038;SDS011;13815;52.374;4.882;2023-09-19T08:02:07;0.00;;;0.00;;
26038;SDS011;13815;52.374;4.882;2023-09-19T08:04:42;0.00;;;0.00;;
26038;SDS011;13815;52.374;4.882;2023-09-19T08:07:07;0.00;;;0.00;;
26038;SDS011;13815;52.374;4.882;2023-09-19T08:09:33;0.00;;;0.00;;
26038;SDS011;13815;52.374;4.882;2023-09-19T08:11:59;0.00;;;0.00;;
26038;SDS011;13815;52.374;4.882;2023-09-19T08:14:27;0.00;;;0.00;;
26038;SDS011;13815;52.374;4.882;2023-09-19T08:16:56;0.00;;;0.00;;
26038;SDS011;13815;52.374;4.882;2023-09-19T08:19:25;0.00;;;0.00;;
26038;SDS011;13815;52.374;4.882;2023-09-19T08:21:56;0.00;;;0.00;;
26038;SDS011;13815;52.374;4.882;2023-09-19T08:24:28;0.00;;;0.00;;
26038;SDS011;13815;52.374;4.882;2023-09-19T08:26:58;0.00;;;0.00;;
26038;SDS011;13815;52.374;4.882;2023-09-19T08:29:29;0.00;;;0.00;;
26038;SDS011;13815;52.374;4.882;2023-09-19T08:31:55;0.00;;;0.00;;
26038;SDS011;13815;52.374;4.882;2023-09-19T08:34:22;0.00;;;0.00;;
26038;SDS011;13815;52.374;4.882;2023-09-19T08:36:48;0.00;;;0.00;;
26038;SDS011;13815;52.374;4.882;2023-09-19T08:39:15;0.00;;;0.00;;
26038;SDS011;13815;52.374;4.882;2023-09-19T08:41:44;0.00;;;0.00;;
26038;SDS011;13815;52.374;4.882;2023-09-19T08:44:09;0.00;;;0.00;;
26038;SDS011;13815;52.374;4.882;2023-09-19T08:46:39;0.00;;;0.00;;
26038;SDS011;13815;52.374;4.882;2023-09-19T08:49:32;0.00;;;0.00;;
26038;SDS011;13815;52.374;4.882;2023-09-19T08:52:16;0.00;;;0.00;;
26038;SDS011;13815;52.374;4.882;2023-09-19T08:54:48;0.00;;;0.00;;
26038;SDS011;13815;52.374;4.882;2023-09-19T08:57:17;0.00;;;0.00;;
26038;SDS011;13815;52.374;4.882;2023-09-19T09:03:09;0.00;;;0.00;;
26038;SDS011;13815;52.374;4.882;2023-09-19T09:05:34;0.00;;;0.00;;
26038;SDS011;13815;52.374;4.882;2023-09-19T09:08:01;0.00;;;0.00;;
26038;SDS011;13815;52.374;4.882;2023-09-19T09:10:28;0.00;;;0.00;;
26038;SDS011;13815;52.374;4.882;2023-09-19T09:12:54;0.00;;;0.00;;
26038;SDS011;13815;52.374;4.882;2023-09-19T09:15:22;0.00;;;0.00;;
26038;SDS011;13815;52.374;4.882;2023-09-19T09:17:51;0.00;;;0.00;;
26038;SDS011;13815;52.374;4.882;2023-09-19T09:20:19;0.00;;;0.00;;
26038;SDS011;13815;52.374;4.882;2023-09-19T09:22:51;0.00;;;0.00;;
26038;SDS011;13815;52.374;4.882;2023-09-19T09:25:19;0.00;;;0.00;;
26038;SDS011;13815;52.374;4.882;2023-09-19T09:27:45;0.00;;;0.00;;
26038;SDS011;13815;52.374;4.882;2023-09-19T09:30:34;0.00;;;0.00;;
26038;SDS011;13815;52.374;4.882;2023-09-19T09:33:10;0.00;;;0.00;;
26038;SDS011;13815;52.374;4.882;2023-09-19T09:35:37;0.10;;;0.10;;
26038;SDS011;13815;52.374;4.882;2023-09-19T09:38:25;0.00;;;0.00;;
26038;SDS011;13815;52.374;4.882;2023-09-19T09:40:57;0.00;;;0.00;;
26038;SDS011;13815;52.374;4.882;2023-09-19T09:43:46;0.00;;;0.00;;
26038;SDS011;13815;52.374;4.882;2023-09-19T09:46:18;0.00;;;0.00;;
26038;SDS011;13815;52.374;4.882;2023-09-19T09:51:42;0.00;;;0.00;;
26038;SDS011;13815;52.374;4.882;2023-09-19T09:54:15;0.00;;;0.00;;
26038;SDS011;13815;52.374;4.882;2023-09-19T09:56:54;0.00;;;0.00;;
26038;SDS011;13815;52.374;4.882;2023-09-19T09:59:42;0.00;;;0.00;;
26038;SDS011;13815;52.374;4.882;2023-09-19T10:02:14;0.00;;;0.00;;
26038;SDS011;13815;52.374;4.882;2023-09-19T10:04:51;0.00;;;0.00;;
26038;SDS011;13815;52.374;4.882;2023-09-19T10:07:30;0.00;;;0.00;;
26038;SDS011;13815;52.374;4.882;2023-09-19T10:13:06;0.10;;;0.10;;
26038;SDS011;13815;52.374;4.882;2023-09-19T10:15:32;0.10;;;0.10;;
26038;SDS011;13815;52.374;4.882;2023-09-19T10:18:04;0.10;;;0.10;;
26038;SDS011;13815;52.374;4.882;2023-09-19T10:20:31;0.20;;;0.20;;
26038;SDS011;13815;52.374;4.882;2023-09-19T10:23:09;0.20;;;0.20;;
26038;SDS011;13815;52.374;4.882;2023-09-19T10:25:42;0.20;;;0.20;;
26038;SDS011;13815;52.374;4.882;2023-09-19T10:28:09;0.20;;;0.20;;
26038;SDS011;13815;52.374;4.882;2023-09-19T10:30:42;0.10;;;0.10;;
26038;SDS011;13815;52.374;4.882;2023-09-19T10:33:12;0.10;;;0.10;;
26038;SDS011;13815;52.374;4.882;2023-09-19T10:35:41;0.10;;;0.10;;
26038;SDS011;13815;52.374;4.882;2023-09-19T10:38:09;0.10;;;0.10;;
26038;SDS011;13815;52.374;4.882;2023-09-19T10:40:36;0.10;;;0.10;;
26038;SDS011;13815;52.374;4.882;2023-09-19T10:43:05;0.10;;;0.10;;
26038;SDS011;13815;52.374;4.882;2023-09-19T10:45:31;0.10;;;0.10;;
26038;SDS011;13815;52.374;4.882;2023-09-19T10:47:58;0.00;;;0.00;;
26038;SDS011;13815;52.374;4.882;2023-09-19T10:50:33;0.10;;;0.10;;
26038;SDS011;13815;52.374;4.882;2023-09-19T10:53:02;0.00;;;0.00;;
26038;SDS011;13815;52.374;4.882;2023-09-19T10:55:30;0.00;;;0.00;;
26038;SDS011;13815;52.374;4.882;2023-09-19T10:57:56;0.00;;;0.00;;
26038;SDS011;13815;52.374;4.882;2023-09-19T11:00:58;0.00;;;0.00;;
26038;SDS011;13815;52.374;4.882;2023-09-19T11:03:42;0.00;;;0.00;;
26038;SDS011;13815;52.374;4.882;2023-09-19T11:06:15;0.10;;;0.10;;
26038;SDS011;13815;52.374;4.882;2023-09-19T11:08:55;0.00;;;0.00;;
26038;SDS011;13815;52.374;4.882;2023-09-19T11:11:39;0.03;;;0.03;;
26038;SDS011;13815;52.374;4.882;2023-09-19T11:46:25;0.00;;;0.00;;
26038;SDS011;13815;52.374;4.882;2023-09-19T11:48:53;0.00;;;0.00;;
26038;SDS011;13815;52.374;4.882;2023-09-19T11:51:22;0.00;;;0.00;;
26038;SDS011;13815;52.374;4.882;2023-09-19T11:56:20;0.00;;;0.00;;
26038;SDS011;13815;52.374;4.882;2023-09-19T11:58:49;0.00;;;0.00;;
26038;SDS011;13815;52.374;4.882;2023-09-19T12:01:22;0.00;;;0.00;;
26038;SDS011;13815;52.374;4.882;2023-09-19T12:03:52;0.00;;;0.00;;
26038;SDS011;13815;52.374;4.882;2023-09-19T12:06:19;0.00;;;0.00;;
26038;SDS011;13815;52.374;4.882;2023-09-19T12:08:47;0.00;;;0.00;;
26038;SDS011;13815;52.374;4.882;2023-09-19T12:11:14;0.00;;;0.00;;
26038;SDS011;13815;52.374;4.882;2023-09-19T12:13:41;0.00;;;0.00;;
26038;SDS011;13815;52.374;4.882;2023-09-19T12:16:16;0.00;;;0.00;;
26038;SDS011;13815;52.374;4.882;2023-09-19T12:18:45;0.00;;;0.00;;
26038;SDS011;13815;52.374;4.882;2023-09-19T12:21:29;0.00;;;0.00;;
26038;SDS011;13815;52.374;4.882;2023-09-19T12:24:17;0.00;;;0.00;;
26038;SDS011;13815;52.374;4.882;2023-09-19T12:26:45;0.00;;;0.00;;
26038;SDS011;13815;52.374;4.882;2023-09-19T12:29:18;0.00;;;0.00;;
26038;SDS011;13815;52.374;4.882;2023-09-19T12:31:50;0.00;;;0.00;;
26038;SDS011;13815;52.374;4.882;2023-09-19T12:34:25;0.00;;;0.00;;
26038;SDS011;13815;52.374;4.882;2023-09-19T12:39:48;0.00;;;0.00;;
26038;SDS011;13815;52.374;4.882;2023-09-19T12:42:16;0.00;;;0.00;;
26038;SDS011;13815;52.374;4.882;2023-09-19T12:44:46;0.00;;;0.00;;
26038;SDS011;13815;52.374;4.882;2023-09-19T12:47:16;0.00;;;0.00;;
26038;SDS011;13815;52.374;4.882;2023-09-19T12:52:50;0.00;;;0.00;;
26038;SDS011;13815;52.374;4.882;2023-09-19T12:55:27;0.00;;;0.00;;
26038;SDS011;13815;52.374;4.882;2023-09-19T13:03:16;0.00;;;0.00;;
26038;SDS011;13815;52.374;4.882;2023-09-19T13:05:58;0.00;;;0.00;;
26038;SDS011;13815;52.374;4.882;2023-09-19T13:08:32;0.00;;;0.00;;
26038;SDS011;13815;52.374;4.882;2023-09-19T13:11:04;0.00;;;0.00;;
26038;SDS011;13815;52.374;4.882;2023-09-19T13:16:14;0.00;;;0.00;;
26038;SDS011;13815;52.374;4.882;2023-09-19T13:18:48;0.00;;;0.00;;
26038;SDS011;13815;52.374;4.882;2023-09-19T13:21:31;0.00;;;0.00;;
26038;SDS011;13815;52.374;4.882;2023-09-19T13:24:20;0.00;;;0.00;;
26038;SDS011;13815;52.374;4.882;2023-09-19T13:26:48;0.00;;;0.00;;
26038;SDS011;13815;52.374;4.882;2023-09-19T13:29:14;0.00;;;0.00;;
26038;SDS011;13815;52.374;4.882;2023-09-19T13:31:49;0.00;;;0.00;;
26038;SDS011;13815;52.374;4.882;2023-09-19T13:34:15;0.00;;;0.00;;
26038;SDS011;13815;52.374;4.882;2023-09-19T13:36:50;0.00;;;0.00;;
26038;SDS011;13815;52.374;4.882;2023-09-19T13:39:16;0.00;;;0.00;;
26038;SDS011;13815;52.374;4.882;2023-09-19T13:41:43;0.00;;;0.00;;
26038;SDS011;13815;52.374;4.882;2023-09-19T13:44:11;0.00;;;0.00;;
26038;SDS011;13815;52.374;4.882;2023-09-19T13:49:27;0.00;;;0.00;;
26038;SDS011;13815;52.374;4.882;2023-09-19T13:51:55;0.00;;;0.00;;
26038;SDS011;13815;52.374;4.882;2023-09-19T13:54:21;0.00;;;0.00;;
26038;SDS011;13815;52.374;4.882;2023-09-19T13:56:50;0.00;;;0.00;;
26038;SDS011;13815;52.374;4.882;2023-09-19T13:59:15;0.00;;;0.00;;
26038;SDS011;13815;52.374;4.882;2023-09-19T14:01:43;0.00;;;0.00;;
26038;SDS011;13815;52.374;4.882;2023-09-19T14:04:12;0.00;;;0.00;;
26038;SDS011;13815;52.374;4.882;2023-09-19T14:06:37;0.00;;;0.00;;
26038;SDS011;13815;52.374;4.882;2023-09-19T14:09:03;0.00;;;0.00;;
26038;SDS011;13815;52.374;4.882;2023-09-19T14:11:29;0.00;;;0.00;;
26038;SDS011;13815;52.374;4.882;2023-09-19T14:13:54;0.00;;;0.00;;
26038;SDS011;13815;52.374;4.882;2023-09-19T14:16:20;0.00;;;0.00;;
26038;SDS011;13815;52.374;4.882;2023-09-19T14:18:47;0.00;;;0.00;;
26038;SDS011;13815;52.374;4.882;2023-09-19T14:21:13;0.00;;;0.00;;
26038;SDS011;13815;52.374;4.882;2023-09-19T14:23:39;0.00;;;0.00;;
26038;SDS011;13815;52.374;4.882;2023-09-19T14:26:06;0.00;;;0.00;;
26038;SDS011;13815;52.374;4.882;2023-09-19T14:28:32;0.00;;;0.00;;
26038;SDS011;13815;52.374;4.882;2023-09-19T14:31:05;0.00;;;0.00;;
26038;SDS011;13815;52.374;4.882;2023-09-19T14:33:31;0.00;;;0.00;;
26038;SDS011;13815;52.374;4.882;2023-09-19T14:35:57;0.00;;;0.00;;
26038;SDS011;13815;52.374;4.882;2023-09-19T14:38:22;0.00;;;0.00;;
26038;SDS011;13815;52.374;4.882;2023-09-19T14:40:47;0.00;;;0.00;;
26038;SDS011;13815;52.374;4.882;2023-09-19T14:43:16;0.00;;;0.00;;
26038;SDS011;13815;52.374;4.882;2023-09-19T14:45:42;0.00;;;0.00;;
26038;SDS011;13815;52.374;4.882;2023-09-19T14:48:08;0.00;;;0.00;;
26038;SDS011;13815;52.374;4.882;2023-09-19T14:50:33;0.00;;;0.00;;
26038;SDS011;13815;52.374;4.882;2023-09-19T14:52:58;0.00;;;0.00;;
26038;SDS011;13815;52.374;4.882;2023-09-19T14:55:28;0.00;;;0.00;;
26038;SDS011;13815;52.374;4.882;2023-09-19T14:57:54;0.00;;;0.00;;
26038;SDS011;13815;52.374;4.882;2023-09-19T15:00:22;0.00;;;0.00;;
26038;SDS011;13815;52.374;4.882;2023-09-19T15:02:48;0.00;;;0.00;;
26038;SDS011;13815;52.374;4.882;2023-09-19T15:05:15;0.00;;;0.00;;
26038;SDS011;13815;52.374;4.882;2023-09-19T15:07:41;0.00;;;0.00;;
26038;SDS011;13815;52.374;4.882;2023-09-19T15:10:07;0.00;;;0.00;;
26038;SDS011;13815;52.374;4.882;2023-09-19T15:12:34;0.00;;;0.00;;
26038;SDS011;13815;52.374;4.882;2023-09-19T15:15:02;0.00;;;0.00;;
26038;SDS011;13815;52.374;4.882;2023-09-19T15:20:20;0.00;;;0.00;;
26038;SDS011;13815;52.374;4.882;2023-09-19T15:22:46;0.00;;;0.00;;
26038;SDS011;13815;52.374;4.882;2023-09-19T15:25:13;0.00;;;0.00;;
26038;SDS011;13815;52.374;4.882;2023-09-19T15:27:38;0.00;;;0.00;;
26038;SDS011;13815;52.374;4.882;2023-09-19T15:30:04;0.00;;;0.00;;
26038;SDS011;13815;52.374;4.882;2023-09-19T15:32:30;0.00;;;0.00;;
26038;SDS011;13815;52.374;4.882;2023-09-19T15:34:56;0.00;;;0.00;;
26038;SDS011;13815;52.374;4.882;2023-09-19T15:37:25;0.00;;;0.00;;
26038;SDS011;13815;52.374;4.882;2023-09-19T15:39:51;0.00;;;0.00;;
26038;SDS011;13815;52.374;4.882;2023-09-19T15:42:19;0.00;;;0.00;;
26038;SDS011;13815;52.374;4.882;2023-09-19T15:44:45;0.00;;;0.00;;
26038;SDS011;13815;52.374;4.882;2023-09-19T15:47:11;0.00;;;0.00;;
26038;SDS011;13815;52.374;4.882;2023-09-19T15:49:38;0.00;;;0.00;;
26038;SDS011;13815;52.374;4.882;2023-09-19T15:52:03;0.00;;;0.00;;
26038;SDS011;13815;52.374;4.882;2023-09-19T15:54:29;0.00;;;0.00;;
26038;SDS011;13815;52.374;4.882;2023-09-19T15:56:54;0.00;;;0.00;;
26038;SDS011;13815;52.374;4.882;2023-09-19T15:59:20;0.00;;;0.00;;
26038;SDS011;13815;52.374;4.882;2023-09-19T16:01:45;0.00;;;0.00;;
26038;SDS011;13815;52.374;4.882;2023-09-19T16:04:11;0.00;;;0.00;;
26038;SDS011;13815;52.374;4.882;2023-09-19T16:06:37;0.00;;;0.00;;
26038;SDS011;13815;52.374;4.882;2023-09-19T16:09:03;0.00;;;0.00;;
26038;SDS011;13815;52.374;4.882;2023-09-19T16:11:31;0.00;;;0.00;;
26038;SDS011;13815;52.374;4.882;2023-09-19T16:14:00;0.00;;;0.00;;
26038;SDS011;13815;52.374;4.882;2023-09-19T16:16:26;0.00;;;0.00;;
26038;SDS011;13815;52.374;4.882;2023-09-19T16:19:04;0.00;;;0.00;;
26038;SDS011;13815;52.374;4.882;2023-09-19T16:21:31;0.00;;;0.00;;
26038;SDS011;13815;52.374;4.882;2023-09-19T16:23:58;0.00;;;0.00;;
26038;SDS011;13815;52.374;4.882;2023-09-19T16:26:23;0.00;;;0.00;;